Aeroporto :







RITROVATECI SU...

 
LOGIN :

Iscrizione | Disclaimer

   EN    FR    IT 

 









Sommario :    VFR   VFR Marginale   IFR   IFR Intensivo   IFR Molto Intensivo
Visibilità : 
Base nubi : 
>= 8 km
>= 3000ft
5 / 8 km
1000 / 3000 ft
1500m / 5 km
500 / 1000 ft
800 / 1500m
200 / 500 ft
< 800m
< 200 ft
Simboli :   Temporali  Nebbia  Neve Forte  Precipitazioni Forti  Vento > 20 kt






- Altitudine del aeroporto : 461 ft
- Codice IATA : YYT


CYYT - St John's Int

ULTIMO METAR :
  • 101100Z 16012KT 15SM SCT025 OVC180 M02/M04 A2972 RMK SC3AC5 SLP074

METARs OBSOLETI :
  • 101000Z 16003KT 15SM BKN190 M03/M07 A2974 RMK AC6 SLP080
  • 100900Z 23006KT 15SM FEW160 BKN220 M04/M10 A2976 RMK AC3CI3 SLP086

TAF TAF CYYT
Valido dal 10 a 06 ore il 11 a 06 ore UTC


100538Z 1006/1106 28012G22KT P6SM FEW200
BECMG 1007/1009 19008KT
FM100900 19008KT P6SM FEW010 BKN180
FM101200 16015G25KT P6SM FEW010 BKN060 OVC140
FM101400 15025G40KT 11/2SM -SHSN BKN007 OVC012
PROB30 1014/1017 3SM -FZRA -PL BR BKN003 OVC010
FM101700 15030G50KT 2SM -RA BR OVC005
FM102100 18020G35KT 3SM -RA BR OVC008
FM102300 21012KT P6SM FEW010
FM110400 23012KT 6SM -RA BR BKN007 BKN080 RMK NXT FCST BY 101200Z



MetMap, La meteo Aeronautica in un colpo d'occhio ! - Copyright ORBIFLY Dicembre 2007 - Disclaimer

ORBIFLY MET'MAP TEAM :

Programmazione e sviluppo : Alexandra Zaïnal
Concezione : Baudouin d'Aumeries
Aiuto per la programmazione : Marc-Olivier Méhu
Supporto tecnico e logistico : Manuel Goepfert
Aiuto per la traduzione : Arnaldo La Scala

Contatto : metmap@orbifly.com




FONTI E CREDITI :

   NOAA